Time;durP1;ratioP1;P1;durP2;ratioP2;P2;SDS_P1;SDS_P2;PMS_P1;PMS_P2;Temp;Humidity;BMP_temperature;BMP_pressure;BME280_temperature;BME280_humidity;BME280_pressure;Samples;Min_cycle;Max_cycle;Signal;HPM_P1;HPM_P2
2022/10/21 00:00:52;;;;;;;23.30;18.37;;;;;;;;;;5024595;28;20251;-78
2022/10/21 00:03:20;;;;;;;21.70;17.97;;;;;;;;;;5034566;28;20270;-79
2022/10/21 00:05:50;;;;;;;23.10;17.07;;;;;;;;;;5036150;28;20563;-78
2022/10/21 00:08:19;;;;;;;26.60;18.00;;;;;;;;;;5035338;28;20224;-78
2022/10/21 00:10:51;;;;;;;24.37;18.27;;;;;;;;;;5036400;28;20224;-78
2022/10/21 00:13:20;;;;;;;23.47;18.23;;;;;;;;;;5031625;28;20287;-79
2022/10/21 00:15:58;;;;;;;21.43;17.37;;;;;;;;;;5024166;28;20622;-78
2022/10/21 00:18:26;;;;;;;22.70;17.47;;;;;;;;;;5023851;28;20661;-78
2022/10/21 00:20:56;;;;;;;26.77;19.20;;;;;;;;;;5034477;28;20299;-77
2022/10/21 00:23:24;;;;;;;22.80;17.87;;;;;;;;;;5034441;28;20299;-78
2022/10/21 00:25:56;;;;;;;22.23;17.53;;;;;;;;;;5033394;28;20239;-78
2022/10/21 00:28:25;;;;;;;22.87;17.77;;;;;;;;;;5034552;28;20204;-78
2022/10/21 00:30:53;;;;;;;24.33;17.70;;;;;;;;;;5034912;28;20256;-78
2022/10/21 00:33:21;;;;;;;23.23;17.37;;;;;;;;;;5034194;28;20290;-78
2022/10/21 00:35:53;;;;;;;24.00;17.70;;;;;;;;;;5034902;28;20204;-78
2022/10/21 00:38:22;;;;;;;22.63;17.23;;;;;;;;;;5034438;28;20246;-78
2022/10/21 00:40:51;;;;;;;23.00;16.63;;;;;;;;;;5039618;28;20638;-78
2022/10/21 00:43:19;;;;;;;23.97;17.77;;;;;;;;;;5036173;28;20657;-78
2022/10/21 00:45:51;;;;;;;24.80;17.17;;;;;;;;;;5028344;28;20290;-78
2022/10/21 00:48:23;;;;;;;24.60;17.77;;;;;;;;;;5034423;28;20294;-78
2022/10/21 00:50:54;;;;;;;22.13;17.67;;;;;;;;;;5034611;28;20311;-78
2022/10/21 00:53:25;;;;;;;22.57;16.53;;;;;;;;;;5034724;28;20272;-78
2022/10/21 00:55:55;;;;;;;23.20;17.53;;;;;;;;;;5038778;28;20737;-79
2022/10/21 00:58:25;;;;;;;21.63;16.30;;;;;;;;;;5035926;28;20239;-79
2022/10/21 01:00:55;;;;;;;21.87;17.47;;;;;;;;;;5037958;28;20310;-78
2022/10/21 01:03:25;;;;;;;20.70;16.60;;;;;;;;;;5034377;28;20238;-78
2022/10/21 01:05:55;;;;;;;21.77;17.60;;;;;;;;;;5033590;28;20715;-78
2022/10/21 01:08:25;;;;;;;20.47;16.70;;;;;;;;;;5015140;28;20300;-78
2022/10/21 01:10:54;;;;;;;23.17;15.77;;;;;;;;;;5036167;28;20266;-78
2022/10/21 01:13:26;;;;;;;24.63;16.53;;;;;;;;;;5034123;28;20288;-78
2022/10/21 01:15:57;;;;;;;22.60;16.57;;;;;;;;;;5013850;28;171307;-78
2022/10/21 01:18:31;;;;;;;22.20;16.67;;;;;;;;;;5031614;28;20629;-78
2022/10/21 01:21:05;;;;;;;22.60;15.67;;;;;;;;;;5034833;28;20221;-79
2022/10/21 01:24:02;;;;;;;19.57;15.60;;;;;;;;;;5032858;28;20227;-78
2022/10/21 01:26:52;;;;;;;20.50;15.37;;;;;;;;;;5035064;28;20236;-78
2022/10/21 01:29:39;;;;;;;22.07;15.53;;;;;;;;;;5027368;28;20307;-78
2022/10/21 01:32:11;;;;;;;23.73;15.30;;;;;;;;;;5028445;28;20248;-78
2022/10/21 01:34:42;;;;;;;17.90;14.97;;;;;;;;;;5034835;28;20277;-79
2022/10/21 01:37:12;;;;;;;20.83;14.93;;;;;;;;;;5034694;28;20243;-78
2022/10/21 01:39:44;;;;;;;18.13;14.87;;;;;;;;;;5034068;28;20247;-78
2022/10/21 01:42:15;;;;;;;16.30;14.10;;;;;;;;;;5044770;28;20278;-78
2022/10/21 01:44:46;;;;;;;20.20;14.90;;;;;;;;;;5038164;28;20284;-78
2022/10/21 01:47:18;;;;;;;19.27;14.57;;;;;;;;;;5034132;28;20294;-78
2022/10/21 01:49:48;;;;;;;19.20;15.03;;;;;;;;;;5034381;28;20231;-78
2022/10/21 01:52:17;;;;;;;20.83;15.00;;;;;;;;;;5034330;28;20223;-78
2022/10/21 01:54:48;;;;;;;22.90;14.50;;;;;;;;;;5034385;28;20579;-78
2022/10/21 01:57:19;;;;;;;20.23;14.57;;;;;;;;;;5034251;28;20232;-78
2022/10/21 01:59:48;;;;;;;17.20;15.30;;;;;;;;;;5034219;28;20255;-78
2022/10/21 02:02:19;;;;;;;18.30;14.53;;;;;;;;;;5033455;28;20208;-78
2022/10/21 02:04:48;;;;;;;17.00;14.87;;;;;;;;;;5027669;28;20238;-78
2022/10/21 02:07:16;;;;;;;20.03;14.60;;;;;;;;;;5034125;28;20661;-78
2022/10/21 02:09:45;;;;;;;18.60;15.00;;;;;;;;;;5033444;28;20232;-78
2022/10/21 02:12:14;;;;;;;20.20;14.60;;;;;;;;;;5052247;28;20298;-79
2022/10/21 02:14:45;;;;;;;18.20;14.53;;;;;;;;;;5043617;28;20227;-78
2022/10/21 02:17:15;;;;;;;21.40;15.60;;;;;;;;;;5033647;28;20703;-78
2022/10/21 02:19:45;;;;;;;16.77;14.40;;;;;;;;;;5043017;28;20241;-78
2022/10/21 02:22:14;;;;;;;20.87;14.83;;;;;;;;;;5043529;28;20204;-78
2022/10/21 02:24:46;;;;;;;19.27;14.73;;;;;;;;;;5030630;28;20207;-78
2022/10/21 02:27:15;;;;;;;20.63;14.57;;;;;;;;;;5033876;28;20227;-79
2022/10/21 02:29:45;;;;;;;18.33;15.30;;;;;;;;;;5032690;28;20315;-79
2022/10/21 02:32:20;;;;;;;17.87;14.60;;;;;;;;;;5035213;28;20204;-78
2022/10/21 02:34:55;;;;;;;18.03;14.73;;;;;;;;;;5033833;28;20192;-78
2022/10/21 02:37:30;;;;;;;19.67;14.70;;;;;;;;;;5034521;28;20230;-78
2022/10/21 02:40:01;;;;;;;17.53;14.17;;;;;;;;;;5019653;28;20224;-78
2022/10/21 02:42:32;;;;;;;19.17;14.73;;;;;;;;;;5017421;28;20242;-78
2022/10/21 02:45:01;;;;;;;19.07;14.83;;;;;;;;;;5033239;28;20282;-78
2022/10/21 02:47:29;;;;;;;18.57;14.33;;;;;;;;;;5048487;28;20646;-78
2022/10/21 02:49:59;;;;;;;19.73;15.03;;;;;;;;;;5052970;28;20246;-79
2022/10/21 02:52:28;;;;;;;19.10;14.70;;;;;;;;;;5033053;28;20294;-78
2022/10/21 02:54:56;;;;;;;20.23;14.83;;;;;;;;;;5047489;28;20206;-78
2022/10/21 02:57:25;;;;;;;20.60;15.13;;;;;;;;;;5047566;28;20294;-78
2022/10/21 02:59:53;;;;;;;20.60;14.40;;;;;;;;;;5033394;28;20262;-77
2022/10/21 03:02:21;;;;;;;19.10;14.30;;;;;;;;;;5033379;28;20208;-78
2022/10/21 03:04:50;;;;;;;18.97;14.00;;;;;;;;;;5033020;28;20283;-77
2022/10/21 03:07:20;;;;;;;20.87;14.63;;;;;;;;;;5033332;28;20250;-78
2022/10/21 03:09:48;;;;;;;19.00;14.03;;;;;;;;;;5033032;28;20314;-78
2022/10/21 03:12:17;;;;;;;16.80;14.70;;;;;;;;;;5033142;28;20308;-78
2022/10/21 03:14:45;;;;;;;17.97;14.00;;;;;;;;;;5033381;28;20600;-78
2022/10/21 03:17:14;;;;;;;18.40;14.20;;;;;;;;;;5015427;28;20311;-79
2022/10/21 03:19:42;;;;;;;17.63;14.27;;;;;;;;;;5032374;28;20226;-78
2022/10/21 03:22:10;;;;;;;20.70;15.23;;;;;;;;;;5032285;28;20258;-78
2022/10/21 03:24:40;;;;;;;18.83;15.80;;;;;;;;;;5033235;28;20238;-78
2022/10/21 03:27:09;;;;;;;20.43;15.03;;;;;;;;;;5044445;28;20253;-78
2022/10/21 03:29:37;;;;;;;18.77;14.97;;;;;;;;;;5045815;28;20326;-78
2022/10/21 03:32:06;;;;;;;17.50;14.47;;;;;;;;;;5036593;28;20636;-78
2022/10/21 03:34:34;;;;;;;19.60;13.73;;;;;;;;;;5032396;28;20247;-78
2022/10/21 03:37:03;;;;;;;20.37;14.90;;;;;;;;;;5032436;28;20203;-78
2022/10/21 03:39:31;;;;;;;17.33;14.73;;;;;;;;;;5041247;28;20785;-78
2022/10/21 03:42:01;;;;;;;21.20;14.30;;;;;;;;;;5032433;28;20240;-78
2022/10/21 03:44:30;;;;;;;17.07;14.73;;;;;;;;;;5033187;28;20257;-78
2022/10/21 03:46:58;;;;;;;15.90;14.20;;;;;;;;;;5032435;28;20299;-78
2022/10/21 03:49:27;;;;;;;18.33;15.57;;;;;;;;;;5031923;28;20295;-78
2022/10/21 03:51:55;;;;;;;18.37;14.80;;;;;;;;;;5031986;28;20657;-78
2022/10/21 03:54:24;;;;;;;17.80;15.37;;;;;;;;;;5031710;28;20227;-78
2022/10/21 03:56:52;;;;;;;16.70;14.00;;;;;;;;;;5037532;28;20298;-78
2022/10/21 03:59:22;;;;;;;19.03;14.17;;;;;;;;;;5038022;28;20291;-79
2022/10/21 04:01:50;;;;;;;17.60;15.53;;;;;;;;;;5051048;28;20266;-80
2022/10/21 04:04:19;;;;;;;21.63;15.27;;;;;;;;;;5035725;28;20250;-79
2022/10/21 04:06:47;;;;;;;20.03;15.10;;;;;;;;;;5032780;28;20250;-79
2022/10/21 04:09:16;;;;;;;19.03;14.90;;;;;;;;;;5036289;28;20254;-79
2022/10/21 04:11:44;;;;;;;23.77;15.40;;;;;;;;;;5036149;28;20231;-79
2022/10/21 04:14:13;;;;;;;18.77;14.80;;;;;;;;;;5039517;28;20306;-79
2022/10/21 04:16:44;;;;;;;19.43;15.17;;;;;;;;;;5056255;28;20215;-78
2022/10/21 04:19:17;;;;;;;21.30;15.07;;;;;;;;;;5047282;28;20200;-80
2022/10/21 04:21:46;;;;;;;16.67;14.80;;;;;;;;;;5036560;28;20176;-79
2022/10/21 04:24:14;;;;;;;17.43;14.60;;;;;;;;;;5034476;28;20204;-79
2022/10/21 04:26:43;;;;;;;19.43;14.60;;;;;;;;;;5016169;28;20215;-78
2022/10/21 04:29:12;;;;;;;18.20;15.07;;;;;;;;;;5036087;28;20302;-79
2022/10/21 04:31:40;;;;;;;21.47;14.73;;;;;;;;;;5038348;28;20314;-79
2022/10/21 04:34:11;;;;;;;17.17;14.60;;;;;;;;;;5036268;28;20203;-79
2022/10/21 04:36:39;;;;;;;18.90;15.20;;;;;;;;;;5036082;28;20219;-79
2022/10/21 04:39:08;;;;;;;18.50;14.73;;;;;;;;;;5035917;28;20631;-79
2022/10/21 04:41:36;;;;;;;16.10;14.07;;;;;;;;;;5035819;28;20299;-79
2022/10/21 04:44:06;;;;;;;17.37;14.30;;;;;;;;;;5035262;28;20196;-79
2022/10/21 04:46:34;;;;;;;17.77;13.87;;;;;;;;;;5035751;28;20695;-79
2022/10/21 04:49:03;;;;;;;16.23;14.53;;;;;;;;;;5044336;28;20235;-79
2022/10/21 04:51:35;;;;;;;18.73;14.23;;;;;;;;;;5020132;28;20268;-79
2022/10/21 04:54:03;;;;;;;18.93;15.23;;;;;;;;;;5026352;28;20227;-79
2022/10/21 04:56:32;;;;;;;17.53;14.23;;;;;;;;;;5035231;28;20239;-79
2022/10/21 04:59:01;;;;;;;17.83;13.93;;;;;;;;;;5035599;28;20730;-79
2022/10/21 05:01:29;;;;;;;17.07;13.43;;;;;;;;;;5035602;28;20239;-80
2022/10/21 05:03:58;;;;;;;18.57;13.53;;;;;;;;;;5035350;28;20653;-78
2022/10/21 05:06:27;;;;;;;18.20;13.50;;;;;;;;;;5035388;28;20257;-79
2022/10/21 05:08:56;;;;;;;17.90;13.07;;;;;;;;;;5035109;28;20672;-79
2022/10/21 05:11:25;;;;;;;15.07;13.33;;;;;;;;;;5021510;28;20271;-79
2022/10/21 05:13:54;;;;;;;17.50;13.70;;;;;;;;;;5035079;28;20231;-78
2022/10/21 05:16:23;;;;;;;20.70;13.00;;;;;;;;;;5034922;28;20681;-79
2022/10/21 05:18:52;;;;;;;14.57;12.33;;;;;;;;;;5033835;28;20231;-78
2022/10/21 05:21:20;;;;;;;16.97;12.97;;;;;;;;;;5035374;28;20645;-78
2022/10/21 05:23:49;;;;;;;15.37;12.20;;;;;;;;;;5034436;28;20227;-78
2022/10/21 05:26:18;;;;;;;14.07;12.13;;;;;;;;;;5033507;28;20200;-79
2022/10/21 05:28:47;;;;;;;14.00;12.47;;;;;;;;;;5033879;28;20257;-79
2022/10/21 05:31:15;;;;;;;14.13;12.43;;;;;;;;;;5034406;28;20282;-79
2022/10/21 05:33:44;;;;;;;14.80;12.53;;;;;;;;;;5034728;28;20239;-79
2022/10/21 05:36:12;;;;;;;16.10;12.60;;;;;;;;;;5034484;28;20243;-79
2022/10/21 05:38:41;;;;;;;14.73;12.10;;;;;;;;;;5034787;28;20643;-79
2022/10/21 05:41:09;;;;;;;13.63;12.23;;;;;;;;;;5034495;28;20255;-79
2022/10/21 05:43:39;;;;;;;17.93;12.40;;;;;;;;;;5034120;28;20287;-78
2022/10/21 05:46:08;;;;;;;16.00;12.80;;;;;;;;;;5034307;28;20269;-79
2022/10/21 05:48:37;;;;;;;15.67;12.47;;;;;;;;;;5034478;28;20218;-79
2022/10/21 05:51:07;;;;;;;15.53;12.00;;;;;;;;;;5034276;28;20314;-79
2022/10/21 05:53:35;;;;;;;14.77;12.43;;;;;;;;;;5034905;28;20200;-79
2022/10/21 05:56:05;;;;;;;12.97;11.63;;;;;;;;;;5034467;28;20227;-79
2022/10/21 05:58:34;;;;;;;13.90;11.90;;;;;;;;;;5033734;28;20232;-79
2022/10/21 06:01:04;;;;;;;13.70;12.07;;;;;;;;;;5034465;28;20232;-79
2022/10/21 06:03:33;;;;;;;18.97;12.63;;;;;;;;;;5034442;28;20212;-79
2022/10/21 06:06:03;;;;;;;13.00;11.67;;;;;;;;;;5026949;28;20274;-79
2022/10/21 06:08:32;;;;;;;13.80;11.63;;;;;;;;;;5014409;28;20212;-78
2022/10/21 06:11:00;;;;;;;15.10;11.87;;;;;;;;;;5014521;28;20236;-79
2022/10/21 06:13:29;;;;;;;13.30;11.90;;;;;;;;;;5014594;28;20228;-79
2022/10/21 06:15:58;;;;;;;16.00;11.53;;;;;;;;;;5019314;28;20257;-79
2022/10/21 06:18:28;;;;;;;13.57;11.70;;;;;;;;;;5033846;28;20299;-78
2022/10/21 06:20:56;;;;;;;13.80;11.57;;;;;;;;;;5034101;28;20644;-79
2022/10/21 06:23:25;;;;;;;13.20;11.83;;;;;;;;;;5033780;28;20326;-79
2022/10/21 06:25:57;;;;;;;13.83;11.57;;;;;;;;;;5033824;28;20203;-79
2022/10/21 06:28:26;;;;;;;12.40;11.10;;;;;;;;;;5034005;28;20676;-78
2022/10/21 06:30:55;;;;;;;14.17;11.70;;;;;;;;;;5033374;28;20271;-78
2022/10/21 06:33:24;;;;;;;16.00;12.40;;;;;;;;;;5033786;28;20303;-78
2022/10/21 06:35:56;;;;;;;14.97;12.23;;;;;;;;;;5033922;28;20185;-78
2022/10/21 06:38:25;;;;;;;14.53;12.43;;;;;;;;;;5034256;28;20616;-79
2022/10/21 06:40:53;;;;;;;14.30;12.10;;;;;;;;;;5033327;28;20274;-79
2022/10/21 06:43:22;;;;;;;13.13;11.63;;;;;;;;;;5033545;28;20681;-79
2022/10/21 06:45:50;;;;;;;15.03;12.10;;;;;;;;;;5033408;28;20234;-78
2022/10/21 06:48:19;;;;;;;15.27;12.33;;;;;;;;;;5033712;28;20660;-78
2022/10/21 06:50:47;;;;;;;14.23;11.63;;;;;;;;;;5033445;28;20259;-79
2022/10/21 06:53:17;;;;;;;13.67;11.27;;;;;;;;;;5033618;28;20273;-79
2022/10/21 06:55:46;;;;;;;12.13;10.60;;;;;;;;;;5033249;28;20243;-79
2022/10/21 06:58:14;;;;;;;12.97;10.93;;;;;;;;;;5033323;28;20628;-79
2022/10/21 07:00:42;;;;;;;12.73;11.33;;;;;;;;;;5033060;28;20262;-79
2022/10/21 07:03:11;;;;;;;11.60;10.07;;;;;;;;;;5033481;28;20657;-79
2022/10/21 07:05:39;;;;;;;14.73;11.00;;;;;;;;;;5033107;28;20250;-78
2022/10/21 07:08:08;;;;;;;11.57;9.80;;;;;;;;;;5033193;28;20239;-79
2022/10/21 07:10:44;;;;;;;13.93;10.60;;;;;;;;;;5033058;28;20254;-78
2022/10/21 07:13:12;;;;;;;13.07;10.57;;;;;;;;;;5033290;28;20243;-78
2022/10/21 07:15:41;;;;;;;15.47;10.73;;;;;;;;;;5033115;28;20302;-78
2022/10/21 07:18:09;;;;;;;11.23;9.97;;;;;;;;;;5033376;28;20657;-78
2022/10/21 07:20:38;;;;;;;11.87;10.43;;;;;;;;;;5033081;28;20319;-79
2022/10/21 07:23:06;;;;;;;12.93;10.50;;;;;;;;;;5033462;28;20270;-79
2022/10/21 07:25:34;;;;;;;11.57;10.37;;;;;;;;;;5033271;28;20633;-79
2022/10/21 07:28:04;;;;;;;13.97;10.07;;;;;;;;;;5032720;28;20294;-79
2022/10/21 07:30:33;;;;;;;15.47;11.43;;;;;;;;;;5033023;28;20732;-79
2022/10/21 07:33:01;;;;;;;13.47;10.53;;;;;;;;;;5033088;28;20314;-79
2022/10/21 07:35:30;;;;;;;13.70;10.33;;;;;;;;;;5033109;28;20208;-78
2022/10/21 07:37:58;;;;;;;13.70;9.73;;;;;;;;;;5033234;28;20291;-78
2022/10/21 07:40:27;;;;;;;11.37;9.87;;;;;;;;;;5032795;28;20220;-79
2022/10/21 07:42:55;;;;;;;13.57;10.33;;;;;;;;;;5035001;28;20196;-79
2022/10/21 07:45:25;;;;;;;12.67;9.73;;;;;;;;;;5037043;28;20734;-79
2022/10/21 07:47:54;;;;;;;11.47;9.10;;;;;;;;;;5036798;28;20294;-78
2022/10/21 07:50:22;;;;;;;10.60;8.63;;;;;;;;;;5036871;28;20262;-79
2022/10/21 07:52:51;;;;;;;10.93;8.23;;;;;;;;;;5036896;28;20265;-79
2022/10/21 07:55:36;;;;;;;9.57;8.40;;;;;;;;;;5037158;28;20275;-78
2022/10/21 07:58:04;;;;;;;9.67;8.50;;;;;;;;;;5036882;28;20602;-78
2022/10/21 08:00:34;;;;;;;9.00;8.10;;;;;;;;;;5036719;28;20359;-79
2022/10/21 08:03:03;;;;;;;8.57;7.70;;;;;;;;;;5036601;28;20250;-79
2022/10/21 08:05:31;;;;;;;9.97;7.80;;;;;;;;;;5036559;28;20203;-79
2022/10/21 08:08:00;;;;;;;8.53;7.73;;;;;;;;;;5036462;28;20645;-79
2022/10/21 08:10:28;;;;;;;8.47;7.57;;;;;;;;;;5036558;28;20258;-78
2022/10/21 08:12:57;;;;;;;8.27;6.97;;;;;;;;;;5036207;28;20319;-78
2022/10/21 08:15:25;;;;;;;7.80;7.03;;;;;;;;;;5036244;28;20720;-78
2022/10/21 08:17:55;;;;;;;7.17;6.47;;;;;;;;;;5036399;28;20188;-79
2022/10/21 08:20:24;;;;;;;7.30;6.60;;;;;;;;;;5036374;28;20750;-78
2022/10/21 08:22:52;;;;;;;8.73;6.63;;;;;;;;;;5036025;28;20246;-78
2022/10/21 08:25:22;;;;;;;6.87;6.17;;;;;;;;;;5036039;28;20255;-78
2022/10/21 08:27:50;;;;;;;10.70;6.30;;;;;;;;;;5035938;28;20278;-79
2022/10/21 08:30:19;;;;;;;7.43;5.60;;;;;;;;;;5036029;28;20268;-79
2022/10/21 08:32:47;;;;;;;7.00;6.23;;;;;;;;;;5035263;28;20215;-79
2022/10/21 08:35:17;;;;;;;6.63;5.90;;;;;;;;;;5035733;28;20294;-79
2022/10/21 08:37:47;;;;;;;7.27;5.93;;;;;;;;;;5035570;28;20227;-79
2022/10/21 08:40:17;;;;;;;7.47;6.30;;;;;;;;;;5035799;28;20236;-78
2022/10/21 08:42:46;;;;;;;6.90;6.03;;;;;;;;;;5030033;28;20673;-78
2022/10/21 08:45:17;;;;;;;7.57;5.73;;;;;;;;;;5015271;28;20235;-78
2022/10/21 08:47:47;;;;;;;6.53;5.70;;;;;;;;;;5030008;28;20286;-79
2022/10/21 08:50:19;;;;;;;6.90;5.93;;;;;;;;;;5034542;28;20223;-78
2022/10/21 08:52:50;;;;;;;6.43;5.27;;;;;;;;;;5033718;28;20748;-79
2022/10/21 08:55:21;;;;;;;6.90;5.55;;;;;;;;;;5034942;28;20307;-78
2022/10/21 08:57:49;;;;;;;6.13;5.53;;;;;;;;;;5035509;28;20224;-78
2022/10/21 09:00:19;;;;;;;5.95;4.72;;;;;;;;;;5034988;28;20732;-78
2022/10/21 09:02:59;;;;;;;6.30;5.35;;;;;;;;;;5035060;28;20223;-78
2022/10/21 09:05:39;;;;;;;5.53;5.03;;;;;;;;;;5034563;28;20235;-78
2022/10/21 09:08:13;;;;;;;6.00;5.00;;;;;;;;;;5035071;28;20250;-78
2022/10/21 09:10:55;;;;;;;6.53;5.13;;;;;;;;;;5035405;28;20269;-78
2022/10/21 09:13:29;;;;;;;6.87;4.93;;;;;;;;;;5034895;28;20262;-78
2022/10/21 09:16:02;;;;;;;5.57;4.50;;;;;;;;;;5035056;28;20708;-78
2022/10/21 09:18:35;;;;;;;7.43;4.80;;;;;;;;;;5034900;28;20232;-78
2022/10/21 09:21:09;;;;;;;6.95;4.93;;;;;;;;;;5034559;28;20298;-78
2022/10/21 09:23:48;;;;;;;7.00;5.47;;;;;;;;;;5035232;28;20180;-78
2022/10/21 09:26:20;;;;;;;6.70;5.10;;;;;;;;;;5031803;28;20232;-78
2022/10/21 09:28:55;;;;;;;11.60;5.10;;;;;;;;;;5015346;28;20204;-78
2022/10/21 09:31:23;;;;;;;6.25;4.45;;;;;;;;;;5014823;28;20228;-78
2022/10/21 09:33:55;;;;;;;6.60;4.83;;;;;;;;;;5025080;28;20636;-78
2022/10/21 09:36:27;;;;;;;5.07;4.57;;;;;;;;;;5034893;28;20629;-78
2022/10/21 09:38:58;;;;;;;5.55;4.88;;;;;;;;;;5034852;28;20291;-78
2022/10/21 09:41:28;;;;;;;6.97;5.00;;;;;;;;;;5034578;28;20291;-78
2022/10/21 09:43:57;;;;;;;6.63;4.47;;;;;;;;;;5035096;28;20615;-78
2022/10/21 09:46:25;;;;;;;6.82;4.72;;;;;;;;;;5034506;28;20234;-78
2022/10/21 09:48:55;;;;;;;10.07;4.85;;;;;;;;;;5034590;28;20303;-78
2022/10/21 09:51:45;;;;;;;6.28;4.43;;;;;;;;;;5034492;28;20947;-78
2022/10/21 09:54:15;;;;;;;8.38;4.55;;;;;;;;;;5034733;28;20258;-78
2022/10/21 09:56:45;;;;;;;6.60;4.60;;;;;;;;;;5034155;28;20204;-78
2022/10/21 09:59:16;;;;;;;6.15;4.50;;;;;;;;;;5034069;28;20199;-78
2022/10/21 10:01:45;;;;;;;5.93;5.07;;;;;;;;;;5033754;28;20261;-78
2022/10/21 10:04:15;;;;;;;4.85;4.20;;;;;;;;;;5034273;28;20269;-78
2022/10/21 10:06:45;;;;;;;6.40;3.97;;;;;;;;;;5033788;28;20688;-78
2022/10/21 10:09:15;;;;;;;5.28;4.32;;;;;;;;;;5034664;28;20636;-78
2022/10/21 10:11:54;;;;;;;5.28;4.60;;;;;;;;;;5034041;28;20294;-78
2022/10/21 10:14:31;;;;;;;4.88;4.43;;;;;;;;;;5033864;28;20262;-78
2022/10/21 10:17:19;;;;;;;7.10;4.70;;;;;;;;;;5017852;28;20222;-78
2022/10/21 10:20:02;;;;;;;6.38;4.57;;;;;;;;;;5014599;28;20225;-78
2022/10/21 10:22:32;;;;;;;5.78;4.55;;;;;;;;;;5014117;28;20200;-78
2022/10/21 10:25:08;;;;;;;6.35;4.25;;;;;;;;;;5029313;28;20212;-78
2022/10/21 10:27:36;;;;;;;5.68;4.20;;;;;;;;;;5034017;28;20243;-78
2022/10/21 10:30:05;;;;;;;5.05;4.40;;;;;;;;;;5033508;28;20223;-78
2022/10/21 10:32:35;;;;;;;7.32;4.30;;;;;;;;;;5033444;28;20227;-78
2022/10/21 10:35:06;;;;;;;5.07;4.40;;;;;;;;;;5033485;28;20250;-78
2022/10/21 10:37:37;;;;;;;5.90;4.30;;;;;;;;;;5033734;28;20208;-79
2022/10/21 10:40:08;;;;;;;5.38;4.43;;;;;;;;;;5033517;28;20681;-78
2022/10/21 10:42:42;;;;;;;8.25;4.63;;;;;;;;;;5032954;28;20199;-78
2022/10/21 10:45:13;;;;;;;6.07;4.95;;;;;;;;;;5032965;28;20199;-78
2022/10/21 10:47:43;;;;;;;5.43;4.40;;;;;;;;;;5033226;28;20227;-78
2022/10/21 10:50:27;;;;;;;10.23;4.82;;;;;;;;;;5033738;28;20219;-78
2022/10/21 10:53:10;;;;;;;5.80;5.00;;;;;;;;;;5033304;28;20211;-78
2022/10/21 10:55:43;;;;;;;5.25;4.72;;;;;;;;;;5033167;28;20258;-78
2022/10/21 10:58:12;;;;;;;5.32;4.60;;;;;;;;;;5033236;28;20648;-78
2022/10/21 11:00:46;;;;;;;6.28;4.82;;;;;;;;;;5033449;28;20719;-78
2022/10/21 11:03:19;;;;;;;6.15;5.28;;;;;;;;;;5032778;28;20231;-78
2022/10/21 11:05:54;;;;;;;6.70;5.35;;;;;;;;;;5031107;28;20245;-78
2022/10/21 11:08:28;;;;;;;5.97;4.90;;;;;;;;;;5033220;28;20648;-78
2022/10/21 11:11:03;;;;;;;8.45;4.82;;;;;;;;;;5032302;28;20224;-78
2022/10/21 11:13:32;;;;;;;6.90;5.43;;;;;;;;;;5013486;28;20189;-78
2022/10/21 11:16:10;;;;;;;9.05;4.88;;;;;;;;;;5016610;28;20246;-78
2022/10/21 11:18:41;;;;;;;6.97;4.88;;;;;;;;;;5026301;28;20200;-78
2022/10/21 11:21:21;;;;;;;6.80;4.78;;;;;;;;;;5037285;28;20230;-78
2022/10/21 11:24:05;;;;;;;7.07;4.50;;;;;;;;;;5037341;28;20294;-77
2022/10/21 11:26:38;;;;;;;7.18;4.75;;;;;;;;;;5037376;28;20745;-78
2022/10/21 11:29:24;;;;;;;9.43;5.32;;;;;;;;;;5037334;28;20193;-78
2022/10/21 11:31:57;;;;;;;8.10;5.00;;;;;;;;;;5037257;28;20688;-78
2022/10/21 11:34:46;;;;;;;5.93;5.22;;;;;;;;;;5036588;28;20834;-78
2022/10/21 11:37:18;;;;;;;5.57;4.50;;;;;;;;;;5036940;28;20223;-78
2022/10/21 11:39:52;;;;;;;5.68;4.88;;;;;;;;;;5036639;28;20259;-78
2022/10/21 11:42:24;;;;;;;6.93;4.65;;;;;;;;;;5037150;28;20218;-78
2022/10/21 11:45:03;;;;;;;6.15;4.75;;;;;;;;;;5036758;28;20188;-78
2022/10/21 11:47:35;;;;;;;9.00;4.88;;;;;;;;;;5032687;28;20621;-78
2022/10/21 11:50:12;;;;;;;7.18;4.97;;;;;;;;;;5017236;28;20260;-77
2022/10/21 11:52:47;;;;;;;6.20;5.00;;;;;;;;;;5029132;28;20204;-78
2022/10/21 11:55:33;;;;;;;5.95;4.43;;;;;;;;;;5036859;28;20632;-78
2022/10/21 11:58:06;;;;;;;6.15;5.28;;;;;;;;;;5036609;28;20254;-78
2022/10/21 12:00:39;;;;;;;7.68;4.93;;;;;;;;;;5036266;28;20232;-78
2022/10/21 12:03:16;;;;;;;8.20;5.35;;;;;;;;;;5020642;28;20724;-78
2022/10/21 12:05:47;;;;;;;7.50;5.55;;;;;;;;;;5019946;28;20253;-78
2022/10/21 12:08:20;;;;;;;7.90;5.07;;;;;;;;;;5035555;28;20234;-77
2022/10/21 12:10:52;;;;;;;6.55;5.35;;;;;;;;;;5035868;28;20246;-78
2022/10/21 12:13:23;;;;;;;9.63;5.22;;;;;;;;;;5034414;28;20619;-77
2022/10/21 12:15:54;;;;;;;7.85;5.45;;;;;;;;;;5034008;28;20258;-77
2022/10/21 12:18:24;;;;;;;8.93;5.50;;;;;;;;;;5034584;28;20232;-78
2022/10/21 12:20:53;;;;;;;6.55;5.68;;;;;;;;;;5035975;28;20314;-77
2022/10/21 12:23:23;;;;;;;6.45;5.70;;;;;;;;;;5036049;28;20235;-78
2022/10/21 12:25:58;;;;;;;7.90;5.78;;;;;;;;;;5035415;28;20200;-78
2022/10/21 12:28:31;;;;;;;8.20;5.47;;;;;;;;;;5035335;28;20657;-78
2022/10/21 12:31:03;;;;;;;6.57;5.60;;;;;;;;;;5035219;28;20220;-78
2022/10/21 12:33:36;;;;;;;5.97;4.88;;;;;;;;;;5035191;28;20291;-78
2022/10/21 12:36:16;;;;;;;5.22;4.72;;;;;;;;;;5028490;28;20262;-78
2022/10/21 12:38:46;;;;;;;8.68;5.32;;;;;;;;;;5036191;28;20590;-77
2022/10/21 12:41:21;;;;;;;6.70;4.68;;;;;;;;;;5035174;28;20231;-77
2022/10/21 12:43:54;;;;;;;7.72;5.00;;;;;;;;;;5035407;28;20230;-78
2022/10/21 12:46:25;;;;;;;6.70;5.25;;;;;;;;;;5027754;28;20263;-77
2022/10/21 12:48:56;;;;;;;7.78;5.07;;;;;;;;;;5035316;28;20210;-78
2022/10/21 12:51:26;;;;;;;5.55;4.93;;;;;;;;;;5033412;28;20234;-77
2022/10/21 12:53:57;;;;;;;10.13;5.40;;;;;;;;;;5035910;28;20243;-78
2022/10/21 12:56:27;;;;;;;6.22;5.22;;;;;;;;;;5032543;28;20270;-77
2022/10/21 12:59:00;;;;;;;8.07;5.50;;;;;;;;;;5034689;28;20704;-77
2022/10/21 13:01:41;;;;;;;6.85;5.32;;;;;;;;;;5034908;28;20278;-77
2022/10/21 13:04:28;;;;;;;6.80;5.40;;;;;;;;;;5035661;28;20536;-77
2022/10/21 13:06:57;;;;;;;7.10;5.47;;;;;;;;;;5035160;28;20231;-77
2022/10/21 13:09:39;;;;;;;7.20;5.00;;;;;;;;;;5034551;28;20265;-77
2022/10/21 13:12:16;;;;;;;7.20;4.60;;;;;;;;;;5033748;28;20269;-78
2022/10/21 13:14:47;;;;;;;5.85;4.30;;;;;;;;;;5033383;28;20203;-78
2022/10/21 13:17:30;;;;;;;8.38;4.30;;;;;;;;;;5033304;28;20721;-78
2022/10/21 13:20:13;;;;;;;7.38;4.57;;;;;;;;;;5033110;28;20254;-78
2022/10/21 13:22:43;;;;;;;6.70;4.70;;;;;;;;;;5033941;28;20216;-78
2022/10/21 13:25:20;;;;;;;8.13;4.85;;;;;;;;;;5028816;28;20243;-78
2022/10/21 13:27:51;;;;;;;6.32;4.90;;;;;;;;;;5021834;28;20234;-78
2022/10/21 13:30:28;;;;;;;8.32;4.70;;;;;;;;;;5034585;28;20666;-78
2022/10/21 13:33:01;;;;;;;5.65;4.28;;;;;;;;;;5026705;28;20232;-78
2022/10/21 13:35:35;;;;;;;7.00;4.85;;;;;;;;;;5037168;28;20235;-79
2022/10/21 13:38:06;;;;;;;8.50;4.80;;;;;;;;;;5034934;28;20255;-78
2022/10/21 13:40:39;;;;;;;5.88;4.70;;;;;;;;;;5025801;28;20232;-78
2022/10/21 13:43:12;;;;;;;7.90;4.55;;;;;;;;;;5033795;28;20302;-78
2022/10/21 13:45:47;;;;;;;8.27;4.80;;;;;;;;;;5034383;28;20275;-78
2022/10/21 13:48:19;;;;;;;5.80;4.32;;;;;;;;;;5034108;28;20310;-78
2022/10/21 13:50:49;;;;;;;8.13;4.53;;;;;;;;;;5033736;28;20224;-78
2022/10/21 13:53:23;;;;;;;6.55;5.57;;;;;;;;;;5032855;28;20283;-79
2022/10/21 13:55:59;;;;;;;7.72;5.22;;;;;;;;;;5033422;28;20689;-79
2022/10/21 13:58:28;;;;;;;8.95;5.90;;;;;;;;;;5034498;28;20204;-78
2022/10/21 14:01:07;;;;;;;6.43;5.40;;;;;;;;;;5028864;28;20283;-79
2022/10/21 14:03:35;;;;;;;9.13;4.82;;;;;;;;;;5014618;28;20243;-79
2022/10/21 14:06:07;;;;;;;8.20;5.18;;;;;;;;;;5051255;28;20207;-79
2022/10/21 14:08:39;;;;;;;6.90;5.22;;;;;;;;;;5032625;28;20575;-79
2022/10/21 14:11:11;;;;;;;6.32;4.57;;;;;;;;;;5033936;28;20684;-79
2022/10/21 14:13:40;;;;;;;5.68;4.90;;;;;;;;;;5023693;28;20208;-79
2022/10/21 14:16:10;;;;;;;6.80;4.22;;;;;;;;;;5032946;28;20247;-78
2022/10/21 14:18:40;;;;;;;8.50;5.68;;;;;;;;;;5031558;28;20238;-78
2022/10/21 14:21:14;;;;;;;5.50;4.90;;;;;;;;;;5031713;28;20278;-78
2022/10/21 14:23:45;;;;;;;7.55;4.68;;;;;;;;;;5029368;28;20676;-78
2022/10/21 14:26:14;;;;;;;6.75;5.10;;;;;;;;;;5012486;28;20185;-78
2022/10/21 14:28:43;;;;;;;6.18;5.05;;;;;;;;;;5028992;28;20231;-78
2022/10/21 14:31:14;;;;;;;8.25;4.50;;;;;;;;;;5021292;28;20220;-78
2022/10/21 14:33:44;;;;;;;6.00;4.93;;;;;;;;;;5031218;28;20820;-78
2022/10/21 14:36:14;;;;;;;6.38;4.97;;;;;;;;;;5030800;28;20770;-78
2022/10/21 14:38:45;;;;;;;6.60;4.63;;;;;;;;;;5029970;28;20192;-78
2022/10/21 14:41:16;;;;;;;5.22;4.70;;;;;;;;;;5029954;28;20302;-78
2022/10/21 14:43:45;;;;;;;5.80;4.88;;;;;;;;;;5031238;28;20199;-78
2022/10/21 14:46:16;;;;;;;5.22;4.35;;;;;;;;;;5032112;28;20195;-77
2022/10/21 14:48:47;;;;;;;6.25;4.20;;;;;;;;;;5029533;28;20276;-78
2022/10/21 14:51:18;;;;;;;5.45;4.47;;;;;;;;;;5030871;28;20224;-78